Time;durP1;ratioP1;P1;durP2;ratioP2;P2;SDS_P1;SDS_P2;PMS_P1;PMS_P2;Temp;Humidity;BMP_temperature;BMP_pressure;BME280_temperature;BME280_humidity;BME280_pressure;Samples;Min_cycle;Max_cycle;Signal;HPM_P1;HPM_P2
2023/12/16 00:00:08;;;;;;;25.77;11.47;;;;;;;7.55;78.27;103591.69;5053625;28;20229;-70
2023/12/16 00:02:37;;;;;;;26.90;10.63;;;;;;;7.57;78.57;103587.16;5053668;28;20191;-70
2023/12/16 00:05:04;;;;;;;19.40;10.20;;;;;;;7.56;78.51;103590.72;5053595;28;20190;-70
2023/12/16 00:07:31;;;;;;;21.23;11.13;;;;;;;7.48;79.08;103591.03;5053515;28;20207;-70
2023/12/16 00:09:57;;;;;;;20.37;11.07;;;;;;;7.53;78.95;103594.41;5053214;28;20265;-70
2023/12/16 00:12:24;;;;;;;36.60;10.90;;;;;;;7.60;78.63;103595.88;5053500;28;20187;-70
2023/12/16 00:14:51;;;;;;;29.63;11.60;;;;;;;7.52;78.96;103589.13;5053510;28;20206;-70
2023/12/16 00:17:18;;;;;;;16.63;10.23;;;;;;;7.44;79.16;103593.88;5053059;28;20682;-70
2023/12/16 00:19:45;;;;;;;21.67;12.20;;;;;;;7.55;79.43;103586.38;5053672;28;20222;-71
2023/12/16 00:22:12;;;;;;;23.43;11.87;;;;;;;7.50;79.69;103580.34;5053410;28;20183;-70
2023/12/16 00:24:38;;;;;;;30.23;11.40;;;;;;;7.55;79.17;103575.72;5053377;28;20199;-70
2023/12/16 00:27:04;;;;;;;35.83;11.60;;;;;;;7.48;79.80;103577.75;5053332;28;20215;-70
2023/12/16 00:29:31;;;;;;;21.27;10.70;;;;;;;7.51;79.54;103574.09;5052841;28;20207;-70
2023/12/16 00:31:58;;;;;;;19.90;10.57;;;;;;;7.51;79.86;103568.78;5053211;28;20610;-70
2023/12/16 00:34:24;;;;;;;26.27;11.27;;;;;;;7.58;79.30;103571.13;5053302;28;20191;-70
2023/12/16 00:36:50;;;;;;;28.43;12.23;;;;;;;7.51;79.17;103574.09;5053279;28;20183;-70
2023/12/16 00:39:17;;;;;;;19.23;10.70;;;;;;;7.50;79.58;103575.03;5053056;28;20203;-70
2023/12/16 00:41:43;;;;;;;21.47;11.03;;;;;;;7.56;79.38;103564.97;5052054;28;20183;-70
2023/12/16 00:44:10;;;;;;;33.87;10.83;;;;;;;7.57;79.61;103569.38;5053197;28;20571;-70
2023/12/16 00:46:36;;;;;;;24.87;12.27;;;;;;;7.52;79.41;103570.50;5052842;28;20203;-70
2023/12/16 00:49:03;;;;;;;20.90;11.17;;;;;;;7.50;80.02;103572.38;5052802;28;20297;-70
2023/12/16 00:51:29;;;;;;;34.33;11.83;;;;;;;7.49;79.88;103573.28;5052852;28;20187;-70
2023/12/16 00:53:56;;;;;;;23.33;11.13;;;;;;;7.48;79.31;103576.88;5053126;28;20183;-70
2023/12/16 00:56:22;;;;;;;32.67;12.23;;;;;;;7.43;80.05;103579.72;5052887;28;20179;-70
2023/12/16 00:58:49;;;;;;;28.13;11.17;;;;;;;7.40;79.89;103568.31;5052796;28;20297;-70
2023/12/16 01:01:16;;;;;;;34.03;11.53;;;;;;;7.42;80.14;103579.78;5052798;28;20249;-70
2023/12/16 01:03:42;;;;;;;33.07;11.53;;;;;;;7.46;79.82;103578.75;5053256;28;20179;-70
2023/12/16 01:06:09;;;;;;;22.70;11.67;;;;;;;7.30;79.82;103574.00;5052641;28;20261;-70
2023/12/16 01:08:36;;;;;;;23.87;11.53;;;;;;;7.39;79.30;103583.44;5052645;28;20199;-70
2023/12/16 01:11:02;;;;;;;24.13;11.80;;;;;;;7.45;79.25;103582.31;5052960;28;20184;-70
2023/12/16 01:13:28;;;;;;;22.67;11.23;;;;;;;7.31;79.33;103580.22;5052665;28;20663;-70
2023/12/16 01:15:55;;;;;;;17.57;10.93;;;;;;;7.42;78.30;103583.31;5052932;28;20546;-70
2023/12/16 01:18:23;;;;;;;27.60;10.37;;;;;;;7.50;77.85;103588.34;5052378;28;20199;-70
2023/12/16 01:20:51;;;;;;;23.67;10.40;;;;;;;7.45;78.11;103595.63;5052604;28;20188;-70
2023/12/16 01:23:17;;;;;;;17.07;9.70;;;;;;;7.43;77.79;103603.66;5052540;28;20180;-70
2023/12/16 01:25:43;;;;;;;33.73;9.30;;;;;;;7.43;77.63;103601.00;5052756;28;20667;-70
2023/12/16 01:28:10;;;;;;;23.70;8.80;;;;;;;7.41;77.68;103594.88;5052533;28;20249;-70
2023/12/16 01:30:37;;;;;;;26.07;8.83;;;;;;;7.38;77.77;103589.69;5052450;28;20218;-70
2023/12/16 01:33:04;;;;;;;14.53;8.17;;;;;;;7.34;77.31;103596.06;5052446;28;20188;-70
2023/12/16 01:35:30;;;;;;;19.07;9.00;;;;;;;7.40;77.17;103594.94;5052485;28;20262;-70
2023/12/16 01:37:57;;;;;;;13.83;9.30;;;;;;;7.54;76.51;103598.78;5052436;28;20175;-70
2023/12/16 01:40:23;;;;;;;43.93;8.87;;;;;;;7.45;76.76;103588.53;5052681;28;20691;-70
2023/12/16 01:42:50;;;;;;;23.20;7.27;;;;;;;7.55;76.50;103595.22;5054188;28;20270;-70
2023/12/16 01:45:18;;;;;;;24.13;8.80;;;;;;;7.61;76.56;103592.28;5054692;28;20190;-70
2023/12/16 01:47:46;;;;;;;17.80;9.77;;;;;;;7.60;76.85;103593.22;5056086;28;20207;-70
2023/12/16 01:50:13;;;;;;;21.10;10.00;;;;;;;7.60;77.29;103587.88;5055820;28;20571;-69
2023/12/16 01:52:44;;;;;;;20.30;9.93;;;;;;;7.61;78.13;103588.75;5056050;28;20187;-69
2023/12/16 01:55:11;;;;;;;28.73;11.40;;;;;;;7.71;76.68;103579.47;5056063;28;20175;-69
2023/12/16 01:57:39;;;;;;;24.30;10.77;;;;;;;7.59;77.16;103585.31;5055976;28;20209;-69
2023/12/16 02:00:15;;;;;;;20.20;9.13;;;;;;;7.57;77.30;103593.34;5054396;28;20218;-69
2023/12/16 02:02:42;;;;;;;34.53;10.23;;;;;;;7.56;77.06;103596.06;5055909;28;20191;-69
2023/12/16 02:05:09;;;;;;;20.63;10.83;;;;;;;7.57;76.83;103601.34;5055574;28;20195;-69
2023/12/16 02:07:35;;;;;;;16.03;9.50;;;;;;;7.56;77.53;103604.03;5055453;28;20214;-69
2023/12/16 02:10:03;;;;;;;23.03;9.77;;;;;;;7.60;77.08;103603.84;5055445;28;20622;-69
2023/12/16 02:12:35;;;;;;;16.93;9.47;;;;;;;7.63;76.20;103601.09;5055448;28;20552;-69
2023/12/16 02:15:02;;;;;;;29.53;9.43;;;;;;;7.66;76.09;103600.97;5055696;28;20190;-69
2023/12/16 02:17:29;;;;;;;17.13;9.13;;;;;;;7.61;76.73;103599.41;5055191;28;20187;-69
2023/12/16 02:19:55;;;;;;;17.43;9.03;;;;;;;7.58;76.90;103607.53;5055199;28;20298;-69
2023/12/16 02:22:22;;;;;;;16.67;9.03;;;;;;;7.60;76.64;103603.00;5055187;28;20192;-69
2023/12/16 02:24:50;;;;;;;25.97;9.07;;;;;;;7.61;76.40;103600.28;5055180;28;20266;-69
2023/12/16 02:27:16;;;;;;;24.10;9.13;;;;;;;7.56;76.53;103594.25;5055341;28;20203;-69
2023/12/16 02:29:43;;;;;;;15.43;8.13;;;;;;;7.56;76.93;103588.94;5055598;28;20615;-69
2023/12/16 02:32:10;;;;;;;14.03;8.10;;;;;;;7.54;76.96;103600.59;5055365;28;20241;-69
2023/12/16 02:34:37;;;;;;;20.60;9.30;;;;;;;7.68;76.36;103603.56;5055330;28;20247;-69
2023/12/16 02:37:06;;;;;;;22.23;9.50;;;;;;;7.57;77.00;103601.34;5055002;28;20659;-69
2023/12/16 02:39:33;;;;;;;13.97;9.27;;;;;;;7.56;77.23;103609.38;5055433;28;20215;-69
2023/12/16 02:41:59;;;;;;;18.70;9.40;;;;;;;7.66;76.89;103608.06;5054900;28;20187;-69
2023/12/16 02:44:26;;;;;;;21.10;8.13;;;;;;;7.67;76.15;103607.16;5055393;28;20187;-69
2023/12/16 02:46:52;;;;;;;26.60;9.03;;;;;;;7.67;76.22;103602.69;5054709;28;20211;-69
2023/12/16 02:49:19;;;;;;;16.27;8.93;;;;;;;7.59;75.56;103602.16;5054974;28;20257;-69
2023/12/16 02:51:45;;;;;;;20.47;8.10;;;;;;;7.62;76.13;103594.03;5054987;28;20191;-69
2023/12/16 02:54:11;;;;;;;23.23;9.63;;;;;;;7.56;76.47;103594.25;5054813;28;20197;-69
2023/12/16 02:56:38;;;;;;;20.97;9.63;;;;;;;7.57;76.48;103584.47;5054924;28;20175;-69
2023/12/16 02:59:04;;;;;;;20.97;9.03;;;;;;;7.49;76.87;103582.13;5054804;28;20658;-69
2023/12/16 03:01:31;;;;;;;20.27;8.93;;;;;;;7.58;76.49;103583.56;5054525;28;20187;-69
2023/12/16 03:03:57;;;;;;;18.43;8.67;;;;;;;7.53;76.50;103581.09;5054799;28;20709;-69
2023/12/16 03:06:24;;;;;;;15.10;8.90;;;;;;;7.53;76.46;103580.22;5054378;28;20204;-69
2023/12/16 03:08:50;;;;;;;21.77;9.67;;;;;;;7.46;77.06;103576.09;5054303;28;20211;-69
2023/12/16 03:11:17;;;;;;;16.97;9.33;;;;;;;7.48;76.87;103569.75;5054327;28;20184;-69
2023/12/16 03:13:43;;;;;;;21.23;10.03;;;;;;;7.58;76.11;103563.13;5054524;28;20195;-69
2023/12/16 03:16:10;;;;;;;20.67;9.37;;;;;;;7.54;76.84;103565.97;5054219;28;20198;-69
2023/12/16 03:18:36;;;;;;;33.93;9.07;;;;;;;7.53;76.77;103572.22;5054023;28;20285;-69
2023/12/16 03:21:05;;;;;;;13.93;8.53;;;;;;;7.46;77.36;103573.41;5054135;28;20673;-69
2023/12/16 03:23:31;;;;;;;14.33;7.93;;;;;;;7.44;77.36;103572.59;5054097;28;20187;-69
2023/12/16 03:25:57;;;;;;;21.63;10.27;;;;;;;7.38;77.70;103567.53;5054311;28;20717;-69
2023/12/16 03:28:24;;;;;;;22.17;10.10;;;;;;;7.33;78.24;103575.72;5054365;28;20207;-69
2023/12/16 03:30:51;;;;;;;21.57;11.13;;;;;;;7.31;78.03;103566.91;5053969;28;20703;-69
2023/12/16 03:33:17;;;;;;;17.03;11.10;;;;;;;7.29;78.08;103559.00;5053926;28;20278;-69
2023/12/16 03:35:44;;;;;;;25.50;9.33;;;;;;;7.27;78.13;103555.50;5053827;28;20202;-69
2023/12/16 03:38:10;;;;;;;15.50;9.43;;;;;;;7.24;78.44;103560.97;5054363;28;20183;-69
2023/12/16 03:40:37;;;;;;;19.57;8.00;;;;;;;7.25;78.24;103560.06;5053691;28;20207;-70
2023/12/16 03:43:03;;;;;;;23.27;9.17;;;;;;;7.25;78.21;103562.72;5053740;28;20186;-69
2023/12/16 03:45:30;;;;;;;16.03;7.53;;;;;;;7.32;77.59;103555.34;5053686;28;20271;-69
2023/12/16 03:47:56;;;;;;;16.00;8.03;;;;;;;7.25;77.73;103562.72;5053596;28;20203;-69
2023/12/16 03:50:23;;;;;;;8.90;6.80;;;;;;;7.24;77.87;103562.75;5053828;28;20686;-69
2023/12/16 03:52:49;;;;;;;8.37;7.53;;;;;;;7.30;77.24;103552.72;5054169;28;20549;-69
2023/12/16 03:55:16;;;;;;;15.73;7.30;;;;;;;7.23;77.55;103559.22;5053513;28;20198;-69
2023/12/16 03:57:42;;;;;;;15.47;7.67;;;;;;;7.22;77.73;103564.59;5053463;28;20191;-69
2023/12/16 04:00:09;;;;;;;11.77;7.33;;;;;;;7.18;77.73;103568.31;5052119;28;20611;-69
2023/12/16 04:02:38;;;;;;;9.07;5.87;;;;;;;7.16;77.40;103563.06;5053699;28;20252;-69
2023/12/16 04:05:07;;;;;;;8.43;6.07;;;;;;;7.28;76.92;103567.03;5052886;28;20188;-69
2023/12/16 04:07:33;;;;;;;9.60;6.53;;;;;;;7.25;77.20;103562.72;5053517;28;20310;-69
2023/12/16 04:10:00;;;;;;;8.27;5.63;;;;;;;7.37;76.38;103568.47;5053192;28;20218;-69
2023/12/16 04:12:26;;;;;;;17.23;6.30;;;;;;;7.29;76.95;103574.09;5053501;28;20187;-69
2023/12/16 04:14:53;;;;;;;9.70;5.97;;;;;;;7.38;76.37;103567.53;5053228;28;20560;-69
2023/12/16 04:17:20;;;;;;;12.37;6.07;;;;;;;7.39;76.13;103564.78;5053258;28;20191;-69
2023/12/16 04:19:53;;;;;;;10.27;5.60;;;;;;;7.57;75.01;103557.88;5053120;28;20203;-69
2023/12/16 04:22:21;;;;;;;18.50;5.77;;;;;;;7.54;75.11;103555.34;5053756;28;20179;-69
2023/12/16 04:24:50;;;;;;;10.60;5.57;;;;;;;7.49;75.47;103560.84;5053123;28;20198;-69
2023/12/16 04:27:17;;;;;;;21.40;7.10;;;;;;;7.48;75.62;103551.13;5053414;28;20573;-69
2023/12/16 04:29:43;;;;;;;14.67;5.53;;;;;;;7.43;75.68;103560.22;5053110;28;20210;-69
2023/12/16 04:32:09;;;;;;;9.30;6.30;;;;;;;7.48;75.51;103563.56;5053212;28;20187;-69
2023/12/16 04:34:36;;;;;;;15.57;6.77;;;;;;;7.50;75.34;103559.91;5053132;28;20585;-69
2023/12/16 04:37:02;;;;;;;15.20;6.60;;;;;;;7.53;74.74;103567.78;5053175;28;20548;-69
2023/12/16 04:39:29;;;;;;;12.67;6.60;;;;;;;7.45;75.30;103566.34;5053038;28;20234;-69
2023/12/16 04:41:55;;;;;;;11.20;6.60;;;;;;;7.47;74.96;103567.19;5053265;28;20195;-69
2023/12/16 04:44:22;;;;;;;13.30;6.33;;;;;;;7.33;75.48;103573.91;5052953;28;20195;-69
2023/12/16 04:46:48;;;;;;;12.03;5.77;;;;;;;7.27;75.60;103571.47;5053128;28;20218;-68
2023/12/16 04:49:14;;;;;;;10.70;5.47;;;;;;;7.26;75.90;103569.75;5052840;28;20257;-69
2023/12/16 04:51:41;;;;;;;11.43;5.77;;;;;;;7.27;75.35;103565.28;5053163;28;20202;-69
2023/12/16 04:54:08;;;;;;;5.53;5.10;;;;;;;7.23;75.70;103571.66;5053419;28;20206;-69
2023/12/16 04:56:34;;;;;;;12.00;6.07;;;;;;;7.23;75.59;103569.00;5052853;28;20195;-69
2023/12/16 04:59:02;;;;;;;11.00;6.07;;;;;;;7.30;75.25;103573.16;5052740;28;20207;-69
2023/12/16 05:01:28;;;;;;;6.57;5.87;;;;;;;7.24;74.99;103560.97;5052789;28;20187;-69
2023/12/16 05:03:55;;;;;;;12.50;6.60;;;;;;;7.35;74.86;103568.50;5052807;28;20234;-69
2023/12/16 05:06:21;;;;;;;14.40;6.53;;;;;;;7.34;74.71;103572.13;5053040;28;20610;-69
2023/12/16 05:08:48;;;;;;;13.83;6.23;;;;;;;7.42;74.80;103579.78;5052844;28;20584;-69
2023/12/16 05:11:14;;;;;;;13.37;7.07;;;;;;;7.39;74.85;103580.75;5053013;28;20206;-68
2023/12/16 05:13:42;;;;;;;17.37;5.70;;;;;;;7.45;74.37;103579.66;5052700;28;20187;-68
2023/12/16 05:16:08;;;;;;;12.33;6.00;;;;;;;7.51;74.20;103584.75;5052674;28;20199;-68
2023/12/16 05:18:35;;;;;;;8.23;5.80;;;;;;;7.54;73.32;103576.63;5055727;28;20750;-69
2023/12/16 05:21:01;;;;;;;13.40;6.97;;;;;;;7.57;73.02;103581.81;5056732;28;20207;-69
2023/12/16 05:23:28;;;;;;;21.50;6.30;;;;;;;7.59;72.33;103585.31;5056352;28;20194;-69
2023/12/16 05:25:54;;;;;;;14.90;6.13;;;;;;;7.57;72.77;103585.34;5056617;28;20183;-69
2023/12/16 05:28:21;;;;;;;15.30;7.03;;;;;;;7.48;72.92;103590.19;5056143;28;20218;-69
2023/12/16 05:30:47;;;;;;;21.00;5.97;;;;;;;7.41;73.64;103592.22;5056237;28;20195;-69
2023/12/16 05:33:14;;;;;;;19.10;5.77;;;;;;;7.40;73.64;103592.28;5056472;28;20183;-69
2023/12/16 05:35:40;;;;;;;22.20;6.30;;;;;;;7.44;73.59;103599.22;5056157;28;20198;-69
2023/12/16 05:38:07;;;;;;;14.47;6.40;;;;;;;7.50;73.68;103598.97;5056356;28;20270;-69
2023/12/16 05:40:33;;;;;;;13.77;6.43;;;;;;;7.43;73.79;103598.34;5056001;28;20277;-69
2023/12/16 05:43:00;;;;;;;11.57;5.53;;;;;;;7.43;74.03;103601.00;5056010;28;20218;-69
2023/12/16 05:45:27;;;;;;;8.73;5.43;;;;;;;7.37;74.28;103605.72;5055982;28;20199;-69
2023/12/16 05:47:53;;;;;;;10.40;6.27;;;;;;;7.50;74.12;103602.50;5056099;28;20266;-69
2023/12/16 05:50:20;;;;;;;14.27;6.33;;;;;;;7.58;73.74;103597.75;5055856;28;20211;-69
2023/12/16 05:52:46;;;;;;;10.73;6.10;;;;;;;7.45;73.92;103591.19;5056345;28;20252;-69
2023/12/16 05:55:13;;;;;;;12.97;5.97;;;;;;;7.42;74.17;103598.44;5055794;28;20198;-69
2023/12/16 05:57:39;;;;;;;22.07;6.73;;;;;;;7.52;73.97;103594.44;5056283;28;20229;-69
2023/12/16 06:00:08;;;;;;;7.47;5.57;;;;;;;7.62;73.52;103595.81;5055642;28;20289;-69
2023/12/16 06:02:35;;;;;;;10.60;5.57;;;;;;;7.66;73.42;103603.63;5055692;28;20233;-69
2023/12/16 06:05:01;;;;;;;12.33;6.37;;;;;;;7.65;73.17;103601.00;5056015;28;20667;-69
2023/12/16 06:07:28;;;;;;;16.70;6.77;;;;;;;7.59;73.38;103603.94;5055531;28;20199;-69
2023/12/16 06:09:54;;;;;;;16.07;6.77;;;;;;;7.64;73.32;103596.59;5055471;28;20209;-69
2023/12/16 06:12:21;;;;;;;12.40;6.30;;;;;;;7.58;73.72;103597.75;5055460;28;20710;-69
2023/12/16 06:14:47;;;;;;;7.33;6.63;;;;;;;7.60;73.64;103595.00;5055435;28;20618;-69
2023/12/16 06:17:14;;;;;;;13.83;5.90;;;;;;;7.65;73.31;103588.56;5055263;28;20252;-69
2023/12/16 06:19:40;;;;;;;16.53;6.70;;;;;;;7.58;73.83;103586.22;5055552;28;20219;-69
2023/12/16 06:22:07;;;;;;;10.50;6.70;;;;;;;7.62;74.02;103587.84;5055552;28;20191;-69
2023/12/16 06:24:34;;;;;;;11.80;5.63;;;;;;;7.54;74.28;103581.97;5055516;28;20191;-69
2023/12/16 06:27:00;;;;;;;13.70;5.60;;;;;;;7.59;73.70;103577.31;5055107;28;20190;-69
2023/12/16 06:29:27;;;;;;;9.10;6.03;;;;;;;7.61;73.23;103575.44;5054842;28;20219;-69
2023/12/16 06:31:53;;;;;;;11.10;6.07;;;;;;;7.67;73.22;103575.22;5055392;28;20183;-69
2023/12/16 06:34:21;;;;;;;16.13;5.80;;;;;;;7.62;73.44;103583.38;5055378;28;20183;-69
2023/12/16 06:36:47;;;;;;;6.73;5.20;;;;;;;7.77;72.93;103581.88;5054992;28;20183;-69
2023/12/16 06:39:14;;;;;;;12.83;6.07;;;;;;;7.74;73.46;103585.53;5055080;28;20210;-69
2023/12/16 06:41:40;;;;;;;17.43;5.70;;;;;;;7.71;73.39;103587.47;5055471;28;20198;-69
2023/12/16 06:44:07;;;;;;;15.40;6.60;;;;;;;7.76;73.01;103593.47;5054880;28;20195;-69
2023/12/16 06:46:33;;;;;;;15.33;6.63;;;;;;;7.79;73.14;103604.00;5055112;28;20183;-69
2023/12/16 06:49:00;;;;;;;18.33;6.13;;;;;;;7.75;73.64;103600.59;5054819;28;20623;-69
2023/12/16 06:51:26;;;;;;;6.63;5.60;;;;;;;7.84;73.16;103619.78;5055027;28;20241;-69
2023/12/16 06:53:53;;;;;;;6.17;5.57;;;;;;;7.79;73.43;103620.84;5054944;28;20195;-69
2023/12/16 06:56:19;;;;;;;21.90;5.93;;;;;;;7.87;73.30;103615.19;5054686;28;20182;-69
2023/12/16 06:58:47;;;;;;;14.53;5.43;;;;;;;7.88;72.83;103608.94;5055057;28;20714;-69
2023/12/16 07:01:14;;;;;;;15.80;6.60;;;;;;;7.76;73.64;103620.09;5055150;28;20172;-69
2023/12/16 07:03:41;;;;;;;10.20;6.17;;;;;;;7.81;73.06;103610.09;5054807;28;20209;-69
2023/12/16 07:06:08;;;;;;;10.57;6.03;;;;;;;7.73;73.84;103623.72;5054723;28;20650;-69
2023/12/16 07:08:36;;;;;;;14.47;6.13;;;;;;;7.73;74.19;103628.19;5054583;28;20591;-69
2023/12/16 07:11:03;;;;;;;12.40;5.37;;;;;;;7.70;74.19;103623.00;5054683;28;20225;-69
2023/12/16 07:13:30;;;;;;;14.20;5.33;;;;;;;7.65;74.74;103619.66;5054583;28;20528;-69
2023/12/16 07:15:57;;;;;;;9.97;6.07;;;;;;;7.63;74.47;103618.88;5054525;28;20183;-69
2023/12/16 07:18:23;;;;;;;14.67;6.00;;;;;;;7.60;74.81;103618.97;5054224;28;20618;-69
2023/12/16 07:20:50;;;;;;;15.67;5.47;;;;;;;7.61;74.55;103623.38;5054155;28;20187;-69
2023/12/16 07:23:16;;;;;;;13.93;6.30;;;;;;;7.65;74.47;103632.97;5054425;28;20171;-69
2023/12/16 07:25:43;;;;;;;10.97;6.57;;;;;;;7.66;74.44;103622.25;5054028;28;20568;-69
2023/12/16 07:28:09;;;;;;;10.13;6.23;;;;;;;7.59;74.81;103626.13;5054181;28;20298;-69
2023/12/16 07:30:36;;;;;;;13.30;6.13;;;;;;;7.60;75.00;103629.59;5053879;28;20282;-69
2023/12/16 07:33:03;;;;;;;18.20;7.30;;;;;;;7.59;75.18;103619.91;5053935;28;20651;-69
2023/12/16 07:35:30;;;;;;;16.80;7.17;;;;;;;7.59;75.14;103625.25;5054209;28;20249;-69
2023/12/16 07:37:56;;;;;;;16.90;6.97;;;;;;;7.59;75.88;103634.09;5054107;28;20184;-69
2023/12/16 07:40:23;;;;;;;23.23;7.03;;;;;;;7.67;75.00;103633.78;5053211;28;20705;-69
2023/12/16 07:42:49;;;;;;;7.80;6.10;;;;;;;7.70;74.92;103633.66;5053717;28;20228;-69
2023/12/16 07:45:16;;;;;;;15.33;6.93;;;;;;;7.63;75.68;103633.03;5054001;28;20194;-69
2023/12/16 07:47:42;;;;;;;11.47;6.37;;;;;;;7.60;75.96;103629.59;5053537;28;20206;-69
2023/12/16 07:50:10;;;;;;;18.50;6.33;;;;;;;7.65;75.42;103636.50;5053806;28;20211;-69
2023/12/16 07:52:37;;;;;;;14.87;7.00;;;;;;;7.64;74.84;103639.22;5053841;28;20618;-69
2023/12/16 07:55:04;;;;;;;15.70;6.83;;;;;;;7.53;75.28;103641.44;5053812;28;20187;-69
2023/12/16 07:57:31;;;;;;;8.20;5.40;;;;;;;7.44;75.73;103634.69;5053773;28;20215;-69
2023/12/16 07:59:58;;;;;;;26.37;7.20;;;;;;;7.45;75.96;103640.88;5053515;28;20214;-69
2023/12/16 08:02:25;;;;;;;16.73;6.50;;;;;;;7.43;76.31;103643.59;5053411;28;20659;-69
2023/12/16 08:04:53;;;;;;;21.23;6.70;;;;;;;7.35;76.23;103635.91;5053895;28;20192;-69
2023/12/16 08:07:20;;;;;;;15.37;5.77;;;;;;;7.44;75.96;103637.34;5053299;28;20201;-70
2023/12/16 08:09:47;;;;;;;20.60;6.23;;;;;;;7.31;76.50;103644.06;5053227;28;20217;-69
2023/12/16 08:12:13;;;;;;;16.83;6.53;;;;;;;7.32;76.60;103649.34;5053281;28;20218;-69
2023/12/16 08:14:40;;;;;;;7.20;5.87;;;;;;;7.27;76.86;103645.13;5053255;28;20184;-69
2023/12/16 08:17:06;;;;;;;18.53;6.70;;;;;;;7.18;77.19;103648.13;5053182;28;20202;-69
2023/12/16 08:19:33;;;;;;;21.47;7.20;;;;;;;7.15;77.56;103646.47;5053343;28;20211;-69
2023/12/16 08:22:00;;;;;;;18.90;6.13;;;;;;;7.17;77.50;103649.06;5053172;28;20183;-69
2023/12/16 08:24:29;;;;;;;18.83;7.07;;;;;;;7.14;77.69;103649.16;5053141;28;20201;-69
2023/12/16 08:26:55;;;;;;;16.07;6.93;;;;;;;7.17;77.50;103654.41;5053106;28;20191;-69
2023/12/16 08:29:22;;;;;;;6.40;5.87;;;;;;;7.08;78.19;103655.59;5053103;28;20223;-69
2023/12/16 08:31:48;;;;;;;22.53;6.40;;;;;;;7.09;78.22;103652.00;5053104;28;20206;-69
2023/12/16 08:34:15;;;;;;;16.20;6.37;;;;;;;7.17;78.20;103646.41;5053098;28;20591;-69
2023/12/16 08:36:41;;;;;;;17.57;6.70;;;;;;;7.18;78.27;103653.44;5053312;28;20193;-69
2023/12/16 08:39:08;;;;;;;21.20;7.40;;;;;;;7.43;77.63;103672.00;5053151;28;20207;-70
2023/12/16 08:41:34;;;;;;;13.10;6.17;;;;;;;7.43;77.81;103667.53;5053009;28;20191;-69
2023/12/16 08:44:03;;;;;;;9.13;6.57;;;;;;;7.56;77.02;103674.13;5053249;28;20547;-69
2023/12/16 08:46:29;;;;;;;26.93;7.80;;;;;;;7.57;76.69;103680.31;5052941;28;20198;-69
2023/12/16 08:48:56;;;;;;;16.70;6.43;;;;;;;7.55;77.07;103668.88;5052691;28;20767;-69
2023/12/16 08:51:23;;;;;;;18.97;6.50;;;;;;;7.60;77.33;103677.53;5054140;28;20556;-69
2023/12/16 08:53:50;;;;;;;15.77;6.90;;;;;;;7.72;77.47;103679.75;5056894;28;20191;-69
2023/12/16 08:56:18;;;;;;;10.53;6.27;;;;;;;7.76;77.26;103678.69;5056901;28;20195;-69
2023/12/16 08:58:46;;;;;;;15.70;6.77;;;;;;;7.91;76.97;103687.84;5057271;28;20207;-70
2023/12/16 09:01:12;;;;;;;11.60;6.73;;;;;;;7.84;75.92;103683.69;5056850;28;20198;-69
2023/12/16 09:03:43;;;;;;;19.73;7.27;;;;;;;7.82;76.37;103681.97;5056978;28;20596;-69
2023/12/16 09:06:10;;;;;;;16.90;7.40;;;;;;;7.90;76.48;103688.75;5057255;28;20175;-69
2023/12/16 09:08:36;;;;;;;19.67;7.10;;;;;;;7.95;75.95;103685.00;5056732;28;20211;-69
2023/12/16 09:11:03;;;;;;;16.43;6.33;;;;;;;7.94;77.06;103683.25;5056649;28;20183;-69
2023/12/16 09:13:30;;;;;;;15.10;7.03;;;;;;;7.98;76.89;103686.66;5057110;28;20186;-69
2023/12/16 09:15:58;;;;;;;14.67;6.87;;;;;;;7.94;77.01;103685.91;5056950;28;20195;-69
2023/12/16 09:18:25;;;;;;;15.20;6.67;;;;;;;7.91;76.93;103685.19;5056970;28;20206;-69
2023/12/16 09:20:51;;;;;;;11.77;5.80;;;;;;;7.95;76.93;103690.31;5056695;28;20253;-69
2023/12/16 09:23:18;;;;;;;13.53;6.23;;;;;;;7.87;76.51;103692.44;5056343;28;20191;-69
2023/12/16 09:25:44;;;;;;;16.63;5.60;;;;;;;7.86;76.88;103688.03;5056344;28;20194;-69
2023/12/16 09:28:11;;;;;;;30.47;7.90;;;;;;;7.94;76.53;103687.69;5056241;28;20610;-69
2023/12/16 09:30:37;;;;;;;16.93;6.03;;;;;;;8.08;75.80;103696.88;5056158;28;20699;-70
2023/12/16 09:33:05;;;;;;;14.40;5.90;;;;;;;8.08;76.14;103685.34;5056282;28;20183;-69
2023/12/16 09:35:32;;;;;;;27.80;5.93;;;;;;;8.07;76.75;103702.25;5056421;28;20193;-69
2023/12/16 09:37:58;;;;;;;11.37;5.37;;;;;;;8.16;76.15;103694.75;5056337;28;20195;-69
2023/12/16 09:40:24;;;;;;;10.07;5.77;;;;;;;8.26;76.06;103693.47;5056088;28;20202;-69
2023/12/16 09:42:55;;;;;;;18.73;4.80;;;;;;;8.35;74.90;103684.25;5056634;28;20258;-69
2023/12/16 09:45:22;;;;;;;12.00;5.00;;;;;;;8.33;75.58;103674.56;5056297;28;20620;-69
2023/12/16 09:47:49;;;;;;;18.20;5.23;;;;;;;8.38;75.04;103680.56;5056059;28;20183;-69
2023/12/16 09:50:15;;;;;;;10.00;5.03;;;;;;;8.46;74.86;103686.44;5055849;28;20213;-69
2023/12/16 09:52:42;;;;;;;10.73;4.93;;;;;;;8.51;74.44;103684.44;5054634;28;20195;-69
2023/12/16 09:55:09;;;;;;;15.83;4.97;;;;;;;8.62;74.94;103679.50;5056030;28;20195;-69
2023/12/16 09:57:38;;;;;;;6.90;5.37;;;;;;;8.77;74.45;103676.19;5055753;28;20179;-69
2023/12/16 10:00:06;;;;;;;6.07;5.20;;;;;;;8.92;74.32;103683.50;5055927;28;20635;-69
2023/12/16 10:02:36;;;;;;;9.73;4.47;;;;;;;9.06;73.67;103691.75;5055621;28;20585;-69
2023/12/16 10:05:04;;;;;;;11.20;5.47;;;;;;;9.16;73.18;103694.88;5055549;28;20187;-69
2023/12/16 10:07:31;;;;;;;14.27;5.23;;;;;;;8.98;73.40;103691.25;5055551;28;20191;-69
2023/12/16 10:09:57;;;;;;;10.40;4.67;;;;;;;9.01;74.02;103698.22;5055356;28;20223;-69
2023/12/16 10:12:33;;;;;;;13.73;5.87;;;;;;;9.04;73.50;103706.09;5055471;28;20187;-69
2023/12/16 10:14:59;;;;;;;11.13;5.23;;;;;;;9.07;73.84;103698.84;5055715;28;20213;-69
2023/12/16 10:17:26;;;;;;;18.03;5.37;;;;;;;8.96;72.87;103695.75;5055718;28;20199;-69
2023/12/16 10:19:52;;;;;;;11.83;5.50;;;;;;;8.91;73.21;103705.78;5055839;28;20698;-69
2023/12/16 10:22:19;;;;;;;12.47;5.20;;;;;;;8.96;74.40;103701.09;5055272;28;20183;-69
2023/12/16 10:24:46;;;;;;;13.97;5.00;;;;;;;9.01;74.41;103698.22;5055170;28;20663;-69
2023/12/16 10:27:15;;;;;;;15.23;4.93;;;;;;;8.99;73.71;103689.44;5055223;28;20183;-69
2023/12/16 10:29:41;;;;;;;12.17;5.07;;;;;;;8.97;74.05;103693.97;5055227;28;20223;-69
2023/12/16 10:32:28;;;;;;;13.60;4.93;;;;;;;8.87;73.97;103688.16;5055690;28;20529;-69
2023/12/16 10:34:56;;;;;;;10.10;5.00;;;;;;;8.93;74.39;103684.38;5055116;28;20218;-69
2023/12/16 10:37:22;;;;;;;12.67;4.90;;;;;;;8.93;74.19;103687.03;5055039;28;20532;-69
2023/12/16 10:39:48;;;;;;;13.90;5.60;;;;;;;8.98;73.75;103683.22;5054905;28;20290;-69
2023/12/16 10:42:15;;;;;;;17.57;4.47;;;;;;;8.95;74.45;103672.72;5054920;28;20187;-69
2023/12/16 10:44:41;;;;;;;14.00;5.13;;;;;;;9.04;73.76;103677.59;5055695;28;20542;-69
2023/12/16 10:47:11;;;;;;;15.83;5.47;;;;;;;8.90;73.81;103669.38;5055097;28;20195;-69
2023/12/16 10:49:44;;;;;;;12.43;5.00;;;;;;;8.90;74.34;103676.50;5054615;28;20246;-69
2023/12/16 10:52:12;;;;;;;14.57;5.17;;;;;;;8.83;74.32;103665.22;5054975;28;20180;-69
2023/12/16 10:54:41;;;;;;;10.27;4.27;;;;;;;8.82;75.67;103657.31;5054602;28;20195;-69
2023/12/16 10:57:31;;;;;;;12.57;3.93;;;;;;;8.91;74.70;103657.75;5054941;28;20697;-69
2023/12/16 11:00:05;;;;;;;16.03;4.23;;;;;;;8.95;74.31;103659.38;5055239;28;20203;-69
2023/12/16 11:02:40;;;;;;;27.80;5.70;;;;;;;8.92;74.99;103661.28;5055117;28;20191;-69
2023/12/16 11:05:18;;;;;;;15.37;4.60;;;;;;;8.84;75.60;103650.09;5055111;28;20186;-69
2023/12/16 11:07:45;;;;;;;4.10;3.80;;;;;;;8.93;75.75;103661.22;5053955;28;20595;-69
2023/12/16 11:10:12;;;;;;;12.80;4.77;;;;;;;9.00;75.21;103649.31;5054551;28;20272;-69
2023/12/16 11:12:40;;;;;;;13.17;5.23;;;;;;;9.06;75.09;103646.38;5054329;28;20184;-69
2023/12/16 11:15:09;;;;;;;10.50;4.50;;;;;;;8.92;74.97;103637.28;5054529;28;20237;-69
2023/12/16 11:17:42;;;;;;;15.83;4.60;;;;;;;8.91;75.02;103647.06;5054009;28;20283;-69
2023/12/16 11:20:16;;;;;;;15.50;5.57;;;;;;;8.93;75.29;103636.34;5054133;28;20206;-69
2023/12/16 11:22:50;;;;;;;17.73;5.57;;;;;;;9.00;75.44;103627.97;5054470;28;20172;-69